Terminal Aerodrome Forecast
Issued by NWS Quad Cities IA IL

Home | Current Version | Previous Version | Text Only | Print | Product List | Glossary On
Versions: 1 2 3 4 5 6 7 8 9 10 11 12 13 14 15 16 17 18 19 20 21 22 23 24 25 26 27 28 29 30
075
FTUS43 KDVN 201050 AAA
TAFDBQ
TAF AMD
KDBQ 201050Z 2011/2106 22007KT P6SM SCT100
     FM201400 25009KT P6SM VCSH BKN060
     FM201700 35012KT P6SM BKN050
     FM210000 04005KT P6SM BKN040=

USA.gov is the U.S. government's official web portal to all federal, state and local government web resources and services.